Time;durP1;ratioP1;P1;durP2;ratioP2;P2;SDS_P1;SDS_P2;PMS_P1;PMS_P2;Temp;Humidity;BMP_temperature;BMP_pressure;BME280_temperature;BME280_humidity;BME280_pressure;Samples;Min_cycle;Max_cycle;Signal;HPM_P1;HPM_P2
2024/01/14 00:00:09;;;;;;;23.90;13.80;;;3.50;67.20;1.50;96283.00;;;;5081383;28;20470;-77
2024/01/14 00:02:38;;;;;;;25.23;13.93;;;3.50;67.20;1.50;96260.00;;;;5082129;28;20453;-78
2024/01/14 00:05:06;;;;;;;24.53;13.60;;;3.50;67.20;1.60;96258.00;;;;5083206;28;20449;-78
2024/01/14 00:07:33;;;;;;;25.83;14.70;;;3.50;67.10;1.60;96246.00;;;;5074094;28;21017;-78
2024/01/14 00:10:01;;;;;;;24.60;14.30;;;3.60;67.90;1.60;96249.00;;;;5073786;28;21051;-78
2024/01/14 00:12:28;;;;;;;26.80;13.97;;;3.60;67.20;1.70;96236.00;;;;5072604;28;20496;-78
2024/01/14 00:14:57;;;;;;;24.33;14.90;;;3.60;67.10;1.70;96234.00;;;;5074356;28;20904;-78
2024/01/14 00:17:24;;;;;;;23.87;13.47;;;3.60;67.00;1.60;96234.00;;;;5072054;28;20481;-78
2024/01/14 00:19:51;;;;;;;25.23;13.37;;;3.60;66.90;1.60;96236.00;;;;5072926;28;20489;-78
2024/01/14 00:22:19;;;;;;;25.37;13.37;;;3.60;66.60;1.60;96245.00;;;;5071253;28;20442;-78
2024/01/14 00:24:46;;;;;;;24.57;13.07;;;3.60;66.60;1.60;96219.00;;;;5072906;28;20495;-78
2024/01/14 00:27:13;;;;;;;22.83;13.13;;;3.60;66.60;1.60;96230.00;;;;5072938;28;20539;-78
2024/01/14 00:29:40;;;;;;;21.27;12.23;;;3.60;66.60;1.60;96217.00;;;;5064560;28;20469;-78
2024/01/14 00:32:09;;;;;;;25.47;14.07;;;3.60;66.70;1.60;96222.00;;;;5073405;28;20470;-78
2024/01/14 00:34:36;;;;;;;24.83;12.87;;;3.60;66.70;1.60;96209.00;;;;5074116;28;20484;-78
2024/01/14 00:37:03;;;;;;;21.60;11.47;;;3.60;66.70;1.60;96203.00;;;;5074487;28;20438;-78
2024/01/14 00:39:30;;;;;;;21.90;13.17;;;3.60;66.80;1.60;96201.00;;;;5073332;28;20461;-78
2024/01/14 00:41:58;;;;;;;24.17;13.10;;;3.60;66.80;1.60;96194.00;;;;5074870;28;20496;-77
2024/01/14 00:44:25;;;;;;;26.57;14.00;;;3.60;66.50;1.60;96189.00;;;;5074515;28;20527;-78
2024/01/14 00:46:54;;;;;;;22.23;12.80;;;3.60;66.60;1.60;96187.00;;;;5074415;28;20478;-78
2024/01/14 00:49:22;;;;;;;21.50;12.53;;;3.60;66.50;1.60;96186.00;;;;5074085;28;20549;-78
2024/01/14 00:51:53;;;;;;;24.97;13.73;;;3.70;66.60;1.60;96177.00;;;;5073699;28;20857;-78
2024/01/14 00:54:21;;;;;;;27.13;13.83;;;3.70;66.60;1.60;96174.00;;;;5073431;28;20966;-78
2024/01/14 00:56:48;;;;;;;25.00;13.53;;;3.60;66.50;1.60;96170.00;;;;5074396;28;20488;-78
2024/01/14 00:59:16;;;;;;;25.50;13.47;;;3.70;66.60;1.60;96167.00;;;;5072614;28;20458;-78
2024/01/14 01:01:43;;;;;;;26.10;13.40;;;3.70;66.60;1.70;96183.00;;;;5074047;28;20495;-78
2024/01/14 01:04:10;;;;;;;28.03;14.43;;;3.70;66.70;1.70;96176.00;;;;5073758;28;20438;-78
2024/01/14 01:06:38;;;;;;;25.50;14.53;;;3.60;66.60;1.70;96183.00;;;;5074407;28;20525;-77
2024/01/14 01:09:06;;;;;;;24.40;14.17;;;3.70;66.50;1.70;96170.00;;;;5073343;28;20866;-78
2024/01/14 01:11:33;;;;;;;25.07;14.43;;;3.70;66.50;1.70;96160.00;;;;5076396;28;20484;-78
2024/01/14 01:14:00;;;;;;;24.63;14.03;;;3.70;66.50;1.70;96177.00;;;;5071744;28;20764;-78
2024/01/14 01:16:27;;;;;;;26.27;14.17;;;3.70;66.50;1.70;96167.00;;;;5071349;28;20443;-78
2024/01/14 01:18:55;;;;;;;24.20;14.07;;;3.70;66.60;1.70;96159.00;;;;5071857;28;20500;-78
2024/01/14 01:21:22;;;;;;;25.50;14.40;;;3.70;66.60;1.70;96162.00;;;;5068263;28;20645;-77
2024/01/14 01:23:51;;;;;;;28.63;14.67;;;3.70;66.70;1.80;96158.00;;;;5072835;28;20188;-78
2024/01/14 01:26:18;;;;;;;24.03;14.23;;;3.70;66.70;1.80;96164.00;;;;5074893;28;20510;-78
2024/01/14 01:28:45;;;;;;;25.80;14.00;;;3.70;66.70;1.80;96156.00;;;;5073273;28;20501;-78
2024/01/14 01:31:13;;;;;;;26.73;13.83;;;3.80;66.60;1.80;96159.00;;;;5072028;28;20442;-78
2024/01/14 01:33:40;;;;;;;28.70;14.73;;;3.80;66.60;1.80;96159.00;;;;5069062;28;20840;-78
2024/01/14 01:36:08;;;;;;;26.27;13.73;;;3.80;66.50;1.80;96153.00;;;;5073092;28;20442;-78
2024/01/14 01:38:36;;;;;;;26.50;14.13;;;3.80;66.40;1.80;96147.00;;;;5075852;28;20542;-78
2024/01/14 01:41:04;;;;;;;25.53;14.17;;;3.80;66.40;1.80;96142.00;;;;5073943;28;20649;-78
2024/01/14 01:43:32;;;;;;;26.87;14.53;;;3.80;66.50;1.90;96136.00;;;;5073025;28;20216;-78
2024/01/14 01:45:59;;;;;;;25.13;14.10;;;3.80;66.70;1.90;96138.00;;;;5073168;28;20466;-78
2024/01/14 01:48:26;;;;;;;28.50;14.33;;;3.80;66.80;1.90;96138.00;;;;5074599;28;21040;-78
2024/01/14 01:50:56;;;;;;;25.87;14.23;;;3.80;66.50;1.90;96129.00;;;;5072993;28;20434;-78
2024/01/14 01:53:25;;;;;;;26.87;14.90;;;3.80;66.40;1.90;96122.00;;;;5072313;28;20216;-78
2024/01/14 01:55:53;;;;;;;26.13;15.00;;;3.80;66.40;1.90;96118.00;;;;5072965;28;20602;-78
2024/01/14 01:58:22;;;;;;;28.27;15.57;;;3.90;66.60;1.90;96108.00;;;;5072802;28;20951;-78
2024/01/14 02:00:51;;;;;;;27.30;14.53;;;3.80;66.50;1.90;96105.00;;;;5072533;28;20600;-78
2024/01/14 02:03:21;;;;;;;29.67;15.13;;;3.90;66.60;1.90;96106.00;;;;5072708;28;20192;-78
2024/01/14 02:05:52;;;;;;;27.73;14.23;;;3.90;66.60;1.90;96108.00;;;;5070004;28;20453;-77
2024/01/14 02:08:20;;;;;;;26.83;14.20;;;3.90;66.70;1.90;96106.00;;;;5069699;28;20435;-78
2024/01/14 02:10:47;;;;;;;30.57;14.80;;;3.90;66.60;1.90;96093.00;;;;5067954;28;20442;-78
2024/01/14 02:13:14;;;;;;;26.27;14.40;;;3.90;66.50;1.90;96094.00;;;;5066844;28;20505;-77
2024/01/14 02:15:43;;;;;;;29.33;15.93;;;3.90;66.60;1.90;96079.00;;;;5069465;28;20242;-78
2024/01/14 02:18:11;;;;;;;28.40;14.43;;;3.90;66.40;1.90;96081.00;;;;5065476;28;20240;-77
2024/01/14 02:20:38;;;;;;;28.73;15.87;;;3.80;66.40;1.90;96082.00;;;;5077260;28;20831;-77
2024/01/14 02:23:09;;;;;;;30.43;15.57;;;3.90;66.40;1.90;96078.00;;;;5075812;28;20453;-78
2024/01/14 02:25:37;;;;;;;27.80;14.70;;;3.90;66.40;1.90;96076.00;;;;5073912;28;20477;-78
2024/01/14 02:28:05;;;;;;;29.07;15.67;;;3.80;66.40;1.90;96071.00;;;;5071982;28;20507;-78
2024/01/14 02:30:35;;;;;;;29.20;15.53;;;3.80;66.40;1.90;96072.00;;;;5071986;28;20549;-78
2024/01/14 02:33:03;;;;;;;28.03;15.00;;;3.80;66.40;1.90;96066.00;;;;5072709;28;20973;-78
2024/01/14 02:35:30;;;;;;;29.57;15.63;;;3.80;66.40;1.90;96060.00;;;;5073248;28;20984;-78
2024/01/14 02:37:58;;;;;;;28.70;15.17;;;3.80;66.30;1.90;96066.00;;;;5071968;28;20442;-78
2024/01/14 02:40:25;;;;;;;32.37;16.53;;;3.80;66.20;1.80;96051.00;;;;5069952;28;20472;-78
2024/01/14 02:42:55;;;;;;;28.73;15.13;;;3.80;66.30;1.80;96044.00;;;;5071578;28;20823;-78
2024/01/14 02:45:22;;;;;;;32.30;16.30;;;3.80;66.20;1.80;96047.00;;;;5071432;28;20521;-78
2024/01/14 02:47:50;;;;;;;28.80;15.60;;;3.80;66.20;1.70;96039.00;;;;5071766;28;21076;-78
2024/01/14 02:50:18;;;;;;;35.60;16.90;;;3.80;66.20;1.70;96032.00;;;;5071566;28;20876;-78
2024/01/14 02:52:45;;;;;;;32.90;16.77;;;3.80;67.10;1.70;96030.00;;;;5064222;28;20289;-78
2024/01/14 02:55:13;;;;;;;29.53;15.03;;;3.80;66.30;1.70;96037.00;;;;5072261;28;20215;-78
2024/01/14 02:57:43;;;;;;;35.00;16.17;;;3.80;66.20;1.70;96040.00;;;;5079461;28;20442;-78
2024/01/14 03:00:13;;;;;;;33.43;17.00;;;3.70;66.30;1.70;96042.00;;;;5081047;28;20468;-78
2024/01/14 03:02:41;;;;;;;32.90;15.93;;;3.70;66.10;1.70;96037.00;;;;5076035;28;20474;-78
2024/01/14 03:05:09;;;;;;;32.40;15.73;;;3.70;66.50;1.70;96034.00;;;;5073242;28;20248;-78
2024/01/14 03:07:38;;;;;;;33.63;16.73;;;3.70;66.30;1.70;96038.00;;;;5069648;28;20470;-78
2024/01/14 03:10:06;;;;;;;31.97;15.10;;;3.70;66.30;1.70;96029.00;;;;5070537;28;20466;-78
2024/01/14 03:12:33;;;;;;;30.00;16.13;;;3.70;66.20;1.60;96041.00;;;;5069028;28;20438;-78
2024/01/14 03:15:00;;;;;;;32.00;16.50;;;3.70;66.30;1.60;96043.00;;;;5066180;28;20249;-78
2024/01/14 03:17:29;;;;;;;32.43;16.47;;;3.60;66.20;1.60;96037.00;;;;5069220;28;20466;-78
2024/01/14 03:19:56;;;;;;;32.47;17.17;;;3.70;66.20;1.60;96036.00;;;;5076673;28;20998;-78
2024/01/14 03:22:23;;;;;;;31.00;15.80;;;3.60;66.10;1.50;96028.00;;;;5061508;28;20796;-78
2024/01/14 03:24:50;;;;;;;34.33;16.23;;;3.60;66.20;1.50;96028.00;;;;5071335;28;20569;-77
2024/01/14 03:27:17;;;;;;;29.70;16.17;;;3.60;66.30;1.60;96031.00;;;;5071140;28;20450;-78
2024/01/14 03:29:45;;;;;;;31.17;15.43;;;3.60;66.40;1.60;96029.00;;;;5071398;28;21086;-78
2024/01/14 03:32:12;;;;;;;29.70;15.87;;;3.60;66.30;1.60;96022.00;;;;5070512;28;20442;-77
2024/01/14 03:34:40;;;;;;;32.80;15.90;;;3.60;66.40;1.60;96007.00;;;;5076622;28;20512;-78
2024/01/14 03:37:08;;;;;;;29.47;14.77;;;3.60;66.40;1.60;96008.00;;;;5073612;28;20946;-77
2024/01/14 03:39:35;;;;;;;28.47;14.63;;;3.60;66.50;1.60;96011.00;;;;5077723;28;20902;-77
2024/01/14 03:42:02;;;;;;;26.30;14.17;;;3.60;66.40;1.60;96006.00;;;;5083163;28;20442;-78
2024/01/14 03:44:29;;;;;;;24.33;13.77;;;3.60;66.20;1.50;96011.00;;;;5079380;28;20448;-78
2024/01/14 03:46:57;;;;;;;27.13;14.97;;;3.60;66.10;1.50;96010.00;;;;5076624;28;20465;-77
2024/01/14 03:49:24;;;;;;;28.50;14.50;;;3.60;66.00;1.40;96004.00;;;;5077519;28;20533;-78
2024/01/14 03:51:52;;;;;;;26.33;13.27;;;3.50;65.80;1.40;96004.00;;;;5077425;28;20469;-78
2024/01/14 03:54:19;;;;;;;27.90;14.07;;;3.50;65.70;1.40;95994.00;;;;5076923;28;20462;-78
2024/01/14 03:56:47;;;;;;;31.60;14.40;;;3.50;65.70;1.30;95995.00;;;;5076610;28;20438;-78
2024/01/14 03:59:14;;;;;;;27.87;13.83;;;3.50;65.60;1.30;95994.00;;;;5075719;28;20540;-77
2024/01/14 04:01:42;;;;;;;24.53;13.83;;;3.40;65.80;1.30;95978.00;;;;5066353;28;20477;-77
2024/01/14 04:04:10;;;;;;;25.50;13.90;;;3.40;65.80;1.30;95986.00;;;;5075982;28;20446;-78
2024/01/14 04:06:37;;;;;;;26.70;14.37;;;3.40;65.80;1.30;95988.00;;;;5075970;28;20466;-77
2024/01/14 04:09:06;;;;;;;26.67;13.37;;;3.40;65.80;1.20;95994.00;;;;5075931;28;20457;-78
2024/01/14 04:11:33;;;;;;;27.90;13.07;;;3.30;65.80;1.20;95992.00;;;;5074105;28;20519;-77
2024/01/14 04:14:00;;;;;;;24.97;13.77;;;3.30;65.90;1.30;95998.00;;;;5078995;28;20465;-77
2024/01/14 04:16:27;;;;;;;30.53;15.30;;;3.30;66.10;1.30;95992.00;;;;5078878;28;20779;-78
2024/01/14 04:18:54;;;;;;;26.03;13.77;;;3.30;66.20;1.30;95994.00;;;;5078060;28;20493;-78
2024/01/14 04:21:22;;;;;;;27.80;14.57;;;3.30;66.40;1.30;95999.00;;;;5073506;28;20542;-77
2024/01/14 04:23:50;;;;;;;27.67;14.00;;;3.30;66.40;1.30;96001.00;;;;5071633;28;20549;-78
2024/01/14 04:26:21;;;;;;;27.13;14.13;;;3.30;66.50;1.30;95995.00;;;;5074044;28;20770;-78
2024/01/14 04:28:49;;;;;;;31.40;14.77;;;3.40;66.50;1.40;95992.00;;;;5080697;28;20461;-78
2024/01/14 04:31:16;;;;;;;28.73;14.77;;;3.40;66.60;1.40;95991.00;;;;5076382;28;20434;-77
2024/01/14 04:33:44;;;;;;;28.63;14.70;;;3.40;66.70;1.50;95994.00;;;;5076723;28;20485;-77
2024/01/14 04:36:11;;;;;;;30.33;16.23;;;3.40;66.70;1.50;95985.00;;;;5078423;28;20966;-77
2024/01/14 04:38:38;;;;;;;28.60;15.50;;;3.40;66.50;1.50;95995.00;;;;5078768;28;20489;-78
2024/01/14 04:41:05;;;;;;;32.47;16.23;;;3.50;66.50;1.50;95993.00;;;;5080138;28;20905;-77
2024/01/14 04:43:34;;;;;;;34.43;15.73;;;3.50;66.40;1.50;96003.00;;;;5080747;28;20477;-78
2024/01/14 04:46:02;;;;;;;34.53;16.57;;;3.50;66.40;1.50;96004.00;;;;5081696;28;20283;-77
2024/01/14 04:48:29;;;;;;;29.37;15.53;;;3.50;66.50;1.50;96011.00;;;;5073911;28;20454;-77
2024/01/14 04:50:57;;;;;;;33.20;15.03;;;3.50;66.50;1.50;96018.00;;;;5072546;28;20449;-78
2024/01/14 04:53:24;;;;;;;30.17;15.27;;;3.50;66.50;1.50;96012.00;;;;5083951;28;21004;-78
2024/01/14 04:55:52;;;;;;;29.40;15.07;;;3.50;66.40;1.50;96011.00;;;;5072689;28;20462;-78
2024/01/14 04:58:20;;;;;;;30.80;15.70;;;3.50;66.30;1.50;96010.00;;;;5071427;28;20943;-78
2024/01/14 05:00:48;;;;;;;29.70;15.07;;;3.50;66.20;1.40;96012.00;;;;5068160;28;20943;-77
2024/01/14 05:03:15;;;;;;;29.27;15.50;;;3.50;66.00;1.40;96011.00;;;;5061406;28;20450;-76
2024/01/14 05:05:42;;;;;;;28.10;14.73;;;3.50;66.10;1.40;96012.00;;;;5070692;28;20550;-76
2024/01/14 05:08:10;;;;;;;28.73;14.83;;;3.40;66.10;1.40;96015.00;;;;5067647;28;20474;-76
2024/01/14 05:10:37;;;;;;;30.27;15.63;;;3.40;66.30;1.40;96017.00;;;;5072725;28;20472;-76
2024/01/14 05:13:04;;;;;;;29.77;15.27;;;3.40;66.20;1.30;96005.00;;;;5074423;28;20507;-77
2024/01/14 05:15:31;;;;;;;29.57;14.47;;;3.40;65.90;1.30;96012.00;;;;5063953;28;20963;-78
2024/01/14 05:18:00;;;;;;;29.13;16.07;;;3.40;65.90;1.20;96013.00;;;;5073478;28;20819;-78
2024/01/14 05:20:27;;;;;;;28.70;15.13;;;3.40;66.00;1.30;96010.00;;;;5073060;28;20446;-78
2024/01/14 05:22:55;;;;;;;30.73;15.67;;;3.40;66.20;1.30;96016.00;;;;5073676;28;20435;-78
2024/01/14 05:25:22;;;;;;;28.73;14.57;;;3.40;66.20;1.30;96019.00;;;;5072084;28;20442;-78
2024/01/14 05:27:49;;;;;;;29.07;15.03;;;3.40;66.20;1.30;96020.00;;;;5071916;28;20461;-78
2024/01/14 05:30:16;;;;;;;27.93;14.60;;;3.40;66.30;1.40;96016.00;;;;5069913;28;20554;-78
2024/01/14 05:32:43;;;;;;;28.73;14.70;;;3.50;66.50;1.50;96012.00;;;;5064632;28;20438;-78
2024/01/14 05:35:12;;;;;;;25.23;14.07;;;3.50;66.40;1.50;96018.00;;;;5072132;28;20609;-78
2024/01/14 05:37:42;;;;;;;32.07;16.23;;;3.50;66.20;1.50;96005.00;;;;5070784;28;20533;-78
2024/01/14 05:40:11;;;;;;;23.90;13.77;;;3.50;66.00;1.50;96008.00;;;;5072630;28;20450;-78
2024/01/14 05:42:40;;;;;;;29.33;14.67;;;3.60;65.80;1.50;96001.00;;;;5072643;28;20508;-78
2024/01/14 05:45:10;;;;;;;27.23;14.80;;;3.60;65.80;1.50;96004.00;;;;5073179;28;20449;-78
2024/01/14 05:47:37;;;;;;;27.53;13.93;;;3.60;66.00;1.50;95998.00;;;;5072153;28;20469;-78
2024/01/14 05:50:05;;;;;;;23.70;13.77;;;3.60;65.80;1.60;96006.00;;;;5072614;28;20462;-78
2024/01/14 05:52:35;;;;;;;26.33;14.13;;;3.60;65.70;1.50;96002.00;;;;5069389;28;21024;-77
2024/01/14 05:55:02;;;;;;;25.40;13.57;;;3.70;66.30;1.50;96009.00;;;;5075574;28;20458;-78
2024/01/14 05:57:31;;;;;;;27.67;13.80;;;3.60;65.50;1.50;96003.00;;;;5068581;28;20446;-78
2024/01/14 05:59:58;;;;;;;28.07;14.10;;;3.60;65.30;1.50;96012.00;;;;5070110;28;21034;-77
2024/01/14 06:02:26;;;;;;;26.30;13.00;;;3.60;65.20;1.50;96010.00;;;;5069117;28;20989;-78
2024/01/14 06:04:54;;;;;;;24.30;13.43;;;3.60;65.10;1.40;96009.00;;;;5070911;28;20876;-78
2024/01/14 06:07:21;;;;;;;24.70;13.87;;;3.50;65.00;1.40;96017.00;;;;5071830;28;20219;-78
2024/01/14 06:09:50;;;;;;;23.97;13.50;;;3.50;65.20;1.40;96012.00;;;;5069978;28;20876;-78
2024/01/14 06:12:17;;;;;;;24.60;12.97;;;3.50;65.10;1.30;96006.00;;;;5072197;28;20473;-78
2024/01/14 06:14:44;;;;;;;26.27;14.00;;;3.50;65.00;1.30;95994.00;;;;5072248;28;20470;-77
2024/01/14 06:17:12;;;;;;;25.73;13.83;;;3.50;64.90;1.30;95988.00;;;;5072630;28;20576;-78
2024/01/14 06:19:44;;;;;;;25.50;14.17;;;3.40;65.40;1.20;95990.00;;;;5072158;28;20474;-78
2024/01/14 06:22:13;;;;;;;26.67;13.87;;;3.40;64.80;1.20;95989.00;;;;5071849;28;20442;-78
2024/01/14 06:24:40;;;;;;;24.33;12.77;;;3.30;64.80;1.10;95994.00;;;;5061986;28;20485;-78
2024/01/14 06:27:09;;;;;;;22.47;12.60;;;3.30;64.80;1.10;96002.00;;;;5070131;28;20822;-78
2024/01/14 06:29:36;;;;;;;23.07;13.57;;;3.30;64.90;1.10;95995.00;;;;5076644;28;20489;-77
2024/01/14 06:32:03;;;;;;;29.43;14.80;;;3.20;64.90;1.10;95996.00;;;;5072975;28;20857;-77
2024/01/14 06:34:30;;;;;;;23.27;13.27;;;3.20;65.00;1.10;95998.00;;;;5071764;28;20470;-77
2024/01/14 06:36:58;;;;;;;23.77;12.73;;;3.20;65.10;1.10;95999.00;;;;5076333;28;20524;-77
2024/01/14 06:39:26;;;;;;;25.13;13.40;;;3.20;65.40;1.10;95998.00;;;;5073083;28;20457;-78
2024/01/14 06:41:53;;;;;;;25.90;13.50;;;3.20;65.30;1.10;95993.00;;;;5071856;28;20564;-77
2024/01/14 06:44:22;;;;;;;25.60;13.50;;;3.20;65.10;1.00;95987.00;;;;5071054;28;20894;-78
2024/01/14 06:46:51;;;;;;;26.30;13.70;;;3.10;64.90;1.00;95979.00;;;;5071366;28;20461;-77
2024/01/14 06:49:18;;;;;;;24.10;12.83;;;3.10;65.00;1.00;95988.00;;;;5069675;28;20490;-77
2024/01/14 06:51:46;;;;;;;25.37;13.63;;;3.10;65.00;1.00;95978.00;;;;5070706;28;20447;-78
2024/01/14 06:54:14;;;;;;;22.57;12.60;;;3.10;65.00;0.90;95988.00;;;;5081245;28;20490;-77
2024/01/14 06:56:45;;;;;;;24.73;12.77;;;3.10;64.90;0.90;95978.00;;;;5079473;28;20843;-77
2024/01/14 06:59:14;;;;;;;28.13;14.27;;;3.00;64.70;0.80;95975.00;;;;5078295;28;20563;-77
2024/01/14 07:01:43;;;;;;;25.97;13.63;;;3.00;64.80;0.80;95974.00;;;;5062738;28;20446;-78
2024/01/14 07:04:10;;;;;;;21.40;12.47;;;2.90;64.80;0.80;95976.00;;;;5073508;28;20434;-77
2024/01/14 07:06:37;;;;;;;25.77;14.57;;;2.90;64.90;0.80;95966.00;;;;5071304;28;20541;-78
2024/01/14 07:09:05;;;;;;;26.50;13.43;;;2.90;65.10;0.70;95960.00;;;;5078621;28;20486;-77
2024/01/14 07:11:32;;;;;;;27.40;14.07;;;2.90;65.20;0.70;95961.00;;;;5071155;28;20435;-77
2024/01/14 07:13:59;;;;;;;25.67;13.77;;;2.90;65.40;0.70;95961.00;;;;5068291;28;20560;-77
2024/01/14 07:16:27;;;;;;;25.80;13.80;;;2.80;65.40;0.70;95958.00;;;;5071399;28;20550;-78
2024/01/14 07:18:55;;;;;;;24.33;13.33;;;2.80;65.50;0.70;95962.00;;;;5071381;28;20987;-77
2024/01/14 07:21:23;;;;;;;26.87;13.80;;;2.80;66.10;0.70;95961.00;;;;5074729;28;20486;-77
2024/01/14 07:23:50;;;;;;;24.27;12.73;;;2.80;65.40;0.70;95961.00;;;;5069864;28;20449;-78
2024/01/14 07:26:19;;;;;;;24.00;13.83;;;2.80;65.40;0.70;95958.00;;;;5071096;28;20605;-78
2024/01/14 07:28:47;;;;;;;27.20;14.40;;;2.80;65.40;0.70;95953.00;;;;5071718;28;20458;-78
2024/01/14 07:31:20;;;;;;;25.80;13.63;;;2.80;65.60;0.70;95959.00;;;;5071982;28;20508;-78
2024/01/14 07:33:48;;;;;;;27.40;14.30;;;2.80;65.60;0.70;95958.00;;;;5063389;28;20496;-78
2024/01/14 07:36:16;;;;;;;24.97;13.93;;;2.80;65.70;0.80;95952.00;;;;5072263;28;20466;-80
2024/01/14 07:38:44;;;;;;;26.07;13.90;;;2.80;65.80;0.80;95952.00;;;;5071998;28;20498;-78
2024/01/14 07:41:13;;;;;;;26.83;13.60;;;2.90;65.80;0.90;95957.00;;;;5069552;28;20453;-77
2024/01/14 07:43:41;;;;;;;23.47;13.93;;;2.90;65.80;0.90;95953.00;;;;5069063;28;20977;-78
2024/01/14 07:46:08;;;;;;;22.63;13.40;;;2.90;65.70;0.90;95954.00;;;;5069285;28;20522;-78
2024/01/14 07:48:37;;;;;;;24.23;13.83;;;3.00;66.10;1.00;95960.00;;;;5067537;28;20645;-77
2024/01/14 07:51:05;;;;;;;26.07;14.13;;;3.00;66.20;1.00;95957.00;;;;5069238;28;20896;-77
2024/01/14 07:53:33;;;;;;;24.07;13.73;;;3.10;66.10;1.10;95963.00;;;;5068817;28;20458;-77
2024/01/14 07:56:03;;;;;;;27.07;13.93;;;3.10;65.90;1.10;95961.00;;;;5068951;28;20493;-78
2024/01/14 07:58:30;;;;;;;29.57;14.03;;;3.20;66.10;1.20;95965.00;;;;5070425;28;20462;-77
2024/01/14 08:00:58;;;;;;;25.90;14.00;;;3.20;66.10;1.20;95956.00;;;;5069515;28;20453;-77
2024/01/14 08:03:25;;;;;;;25.90;13.77;;;3.30;66.00;1.30;95957.00;;;;5076810;28;20510;-78
2024/01/14 08:05:52;;;;;;;28.40;13.97;;;3.40;66.10;1.30;95972.00;;;;5071205;28;20492;-78
2024/01/14 08:08:19;;;;;;;31.10;14.33;;;3.30;65.90;1.40;95965.00;;;;5070561;28;20426;-78
2024/01/14 08:10:49;;;;;;;22.97;13.50;;;3.40;65.80;1.40;95960.00;;;;5071069;28;20474;-77
2024/01/14 08:13:16;;;;;;;25.53;13.83;;;3.40;65.70;1.40;95961.00;;;;5071723;28;20446;-78
2024/01/14 08:15:43;;;;;;;25.50;13.43;;;3.50;65.50;1.50;95965.00;;;;5070521;28;20498;-77
2024/01/14 08:18:12;;;;;;;25.67;13.67;;;3.50;65.50;1.50;95951.00;;;;5070517;28;20536;-78
2024/01/14 08:20:39;;;;;;;26.63;13.60;;;3.50;66.00;1.40;95945.00;;;;5070637;28;20434;-78
2024/01/14 08:23:06;;;;;;;24.60;13.03;;;3.50;65.20;1.40;95945.00;;;;5074515;28;20474;-78
2024/01/14 08:25:33;;;;;;;28.60;13.87;;;3.50;64.90;1.40;95944.00;;;;5075496;28;20442;-77
2024/01/14 08:28:02;;;;;;;23.33;13.33;;;3.50;64.90;1.40;95942.00;;;;5073438;28;21216;-77
2024/01/14 08:30:29;;;;;;;24.80;13.47;;;3.50;65.00;1.40;95944.00;;;;5073908;28;20452;-78
2024/01/14 08:32:56;;;;;;;24.27;14.07;;;3.50;65.00;1.40;95948.00;;;;5074595;28;20437;-78
2024/01/14 08:35:24;;;;;;;24.77;13.87;;;3.50;64.90;1.40;95943.00;;;;5072723;28;20578;-78
2024/01/14 08:37:51;;;;;;;26.63;14.03;;;3.50;64.90;1.50;95944.00;;;;5074590;28;20517;-78
2024/01/14 08:40:18;;;;;;;28.90;14.37;;;3.50;65.00;1.50;95939.00;;;;5072926;28;20748;-78
2024/01/14 08:42:48;;;;;;;20.17;11.93;;;3.50;65.10;1.50;95936.00;;;;5069862;28;20485;-78
2024/01/14 08:45:17;;;;;;;24.83;11.93;;;3.60;65.10;1.50;95935.00;;;;5077610;28;20481;-77
2024/01/14 08:47:45;;;;;;;23.57;13.10;;;3.60;65.10;1.50;95931.00;;;;5072122;28;20537;-78
2024/01/14 08:50:12;;;;;;;20.87;11.97;;;3.60;65.10;1.60;95925.00;;;;5072530;28;20477;-77
2024/01/14 08:52:40;;;;;;;22.57;12.80;;;3.60;65.20;1.60;95924.00;;;;5073497;28;20549;-78
2024/01/14 08:55:09;;;;;;;26.43;12.80;;;3.60;65.30;1.70;95924.00;;;;5077362;28;20520;-78
2024/01/14 08:57:39;;;;;;;24.87;12.67;;;3.70;65.50;1.70;95940.00;;;;5056269;28;20443;-78
2024/01/14 09:00:08;;;;;;;26.50;13.43;;;3.70;66.30;1.80;95927.00;;;;5072679;28;20466;-78
2024/01/14 09:02:37;;;;;;;27.13;13.47;;;3.80;65.60;1.90;95935.00;;;;5072257;28;20485;-77
2024/01/14 09:05:05;;;;;;;23.37;12.43;;;3.90;65.50;2.00;95930.00;;;;5074224;28;20216;-78
2024/01/14 09:07:33;;;;;;;24.10;12.77;;;3.90;65.60;2.10;95941.00;;;;5072498;28;20192;-79
2024/01/14 09:10:00;;;;;;;24.13;13.20;;;4.00;65.50;2.20;95935.00;;;;5074649;28;20796;-78
2024/01/14 09:12:28;;;;;;;23.67;12.60;;;4.10;65.50;2.30;95936.00;;;;5074527;28;20446;-78
2024/01/14 09:14:54;;;;;;;23.93;13.10;;;4.20;65.40;2.40;95937.00;;;;5083425;28;20509;-78
2024/01/14 09:17:21;;;;;;;23.93;12.43;;;4.30;65.30;2.40;95936.00;;;;5080423;28;20215;-78
2024/01/14 09:19:50;;;;;;;25.13;12.70;;;4.40;65.20;2.50;95934.00;;;;5074574;28;20214;-79
2024/01/14 09:22:17;;;;;;;26.67;13.77;;;4.40;65.00;2.50;95936.00;;;;5074160;28;20232;-79
2024/01/14 09:24:45;;;;;;;28.33;13.03;;;4.50;64.90;2.50;95930.00;;;;5078912;28;20234;-79
2024/01/14 09:27:12;;;;;;;24.47;12.80;;;4.50;64.60;2.50;95935.00;;;;5077939;28;20211;-79
2024/01/14 09:29:41;;;;;;;24.70;13.67;;;4.50;64.50;2.60;95942.00;;;;5072984;28;20204;-78
2024/01/14 09:32:08;;;;;;;23.17;12.53;;;4.60;64.40;2.60;95936.00;;;;5072884;28;20184;-78
2024/01/14 09:34:36;;;;;;;26.77;13.63;;;4.60;64.40;2.60;95925.00;;;;5071978;28;20617;-78
2024/01/14 09:37:05;;;;;;;20.67;11.60;;;4.60;64.30;2.60;95932.00;;;;5070533;28;20230;-79
2024/01/14 09:39:32;;;;;;;24.00;13.10;;;4.60;64.10;2.70;95934.00;;;;5071986;28;20293;-78
2024/01/14 09:42:08;;;;;;;24.90;13.30;;;4.70;64.20;2.70;95933.00;;;;5072985;28;20220;-79
2024/01/14 09:44:35;;;;;;;28.07;14.07;;;4.70;64.20;2.70;95933.00;;;;5072940;28;20196;-79
2024/01/14 09:47:06;;;;;;;22.83;13.83;;;4.70;64.20;2.80;95928.00;;;;5072578;28;20188;-79
2024/01/14 09:49:34;;;;;;;28.33;13.90;;;4.70;64.30;2.80;95932.00;;;;5074198;28;20204;-79
2024/01/14 09:52:05;;;;;;;23.97;13.13;;;4.80;64.40;2.90;95923.00;;;;5066918;28;20249;-79
2024/01/14 09:54:32;;;;;;;24.60;13.17;;;4.80;64.50;3.00;95919.00;;;;5074186;28;20204;-79
2024/01/14 09:57:07;;;;;;;26.77;14.90;;;4.90;64.90;3.20;95915.00;;;;5080791;28;20195;-80
2024/01/14 09:59:35;;;;;;;25.67;13.50;;;5.00;65.30;3.30;95915.00;;;;5072531;28;20485;-80
2024/01/14 10:02:04;;;;;;;26.03;14.00;;;5.20;65.70;3.50;95920.00;;;;5079106;28;20606;-80
2024/01/14 10:04:32;;;;;;;28.70;15.77;;;5.30;65.60;3.70;95920.00;;;;5075290;28;20626;-80
2024/01/14 10:07:00;;;;;;;26.20;13.70;;;5.50;65.60;3.80;95918.00;;;;5080774;28;20282;-80
2024/01/14 10:09:29;;;;;;;27.77;14.50;;;5.60;65.20;3.90;95922.00;;;;5075618;28;20212;-80
2024/01/14 10:11:57;;;;;;;23.90;13.13;;;5.70;64.90;4.00;95917.00;;;;5075931;28;20238;-81
2024/01/14 10:14:27;;;;;;;23.43;13.00;;;5.80;64.80;4.10;95921.00;;;;5076266;28;20221;-81
2024/01/14 10:16:56;;;;;;;22.47;13.30;;;5.90;64.40;4.20;95908.00;;;;5077777;28;20285;-81
2024/01/14 10:19:24;;;;;;;21.87;11.80;;;6.00;64.30;4.30;95902.00;;;;5077320;28;20216;-81
2024/01/14 10:21:54;;;;;;;27.03;13.97;;;6.10;64.30;4.40;95885.00;;;;5076089;28;20195;-81
2024/01/14 10:24:22;;;;;;;21.50;12.70;;;6.20;63.90;4.40;95885.00;;;;5076734;28;20200;-81
2024/01/14 10:26:54;;;;;;;26.10;14.30;;;6.30;63.70;4.40;95885.00;;;;5077012;28;20242;-81
2024/01/14 10:29:22;;;;;;;23.90;13.03;;;6.30;64.10;4.40;95887.00;;;;5074935;28;20290;-81
2024/01/14 10:31:49;;;;;;;23.17;13.07;;;6.40;63.40;4.50;95881.00;;;;5073046;28;20184;-81
2024/01/14 10:34:18;;;;;;;21.30;12.43;;;6.40;63.30;4.50;95875.00;;;;5057594;28;20206;-81
2024/01/14 10:36:47;;;;;;;25.73;13.33;;;6.40;63.30;4.60;95868.00;;;;5075206;28;20208;-81
2024/01/14 10:39:14;;;;;;;24.10;12.67;;;6.40;63.40;4.60;95867.00;;;;5073777;28;20427;-81
2024/01/14 10:41:41;;;;;;;23.80;12.47;;;6.40;63.10;4.60;95869.00;;;;5066087;28;20256;-81
2024/01/14 10:44:12;;;;;;;18.43;11.63;;;6.50;63.00;4.60;95856.00;;;;5075506;28;20606;-81
2024/01/14 10:46:42;;;;;;;26.23;13.20;;;6.50;63.00;4.60;95848.00;;;;5076862;28;20216;-81
2024/01/14 10:49:12;;;;;;;19.47;12.50;;;6.50;63.10;4.60;95848.00;;;;5075818;28;20239;-81
2024/01/14 10:51:41;;;;;;;19.47;11.80;;;6.50;63.10;4.60;95848.00;;;;5075718;28;20183;-81
2024/01/14 10:54:27;;;;;;;21.87;11.90;;;6.50;63.00;4.60;95838.00;;;;5075403;28;20192;-81
2024/01/14 10:57:17;;;;;;;20.10;11.53;;;6.50;62.80;4.60;95830.00;;;;5075282;28;20208;-81